sensor_id;sensor_type;location;lat;lon;timestamp;P1;durP1;ratioP1;P2;durP2;ratioP2
45236;SDS011;30973;51.442;3.580;2022-12-20T00:00:50;10.43;;;3.70;;
45236;SDS011;30973;51.442;3.580;2022-12-20T00:03:16;7.00;;;3.92;;
45236;SDS011;30973;51.442;3.580;2022-12-20T00:05:43;8.43;;;3.83;;
45236;SDS011;30973;51.442;3.580;2022-12-20T00:08:10;8.18;;;3.90;;
45236;SDS011;30973;51.442;3.580;2022-12-20T00:10:38;8.20;;;3.60;;
45236;SDS011;30973;51.442;3.580;2022-12-20T00:13:05;6.65;;;4.07;;
45236;SDS011;30973;51.442;3.580;2022-12-20T00:15:31;6.10;;;3.35;;
45236;SDS011;30973;51.442;3.580;2022-12-20T00:17:58;5.50;;;3.65;;
45236;SDS011;30973;51.442;3.580;2022-12-20T00:20:26;7.65;;;3.88;;
45236;SDS011;30973;51.442;3.580;2022-12-20T00:22:53;7.85;;;4.13;;
45236;SDS011;30973;51.442;3.580;2022-12-20T00:25:19;10.35;;;3.92;;
45236;SDS011;30973;51.442;3.580;2022-12-20T00:27:46;7.30;;;3.63;;
45236;SDS011;30973;51.442;3.580;2022-12-20T00:30:13;9.30;;;4.47;;
45236;SDS011;30973;51.442;3.580;2022-12-20T00:32:40;9.35;;;3.50;;
45236;SDS011;30973;51.442;3.580;2022-12-20T00:35:07;8.20;;;3.85;;
45236;SDS011;30973;51.442;3.580;2022-12-20T00:37:34;8.77;;;4.15;;
45236;SDS011;30973;51.442;3.580;2022-12-20T00:40:02;9.57;;;3.72;;
45236;SDS011;30973;51.442;3.580;2022-12-20T00:42:29;7.68;;;4.00;;
45236;SDS011;30973;51.442;3.580;2022-12-20T00:44:56;8.82;;;4.18;;
45236;SDS011;30973;51.442;3.580;2022-12-20T00:47:22;6.22;;;3.83;;
45236;SDS011;30973;51.442;3.580;2022-12-20T00:49:49;7.57;;;3.97;;
45236;SDS011;30973;51.442;3.580;2022-12-20T00:52:16;5.97;;;3.40;;
45236;SDS011;30973;51.442;3.580;2022-12-20T00:54:42;12.93;;;3.92;;
45236;SDS011;30973;51.442;3.580;2022-12-20T00:57:09;8.75;;;4.15;;
45236;SDS011;30973;51.442;3.580;2022-12-20T00:59:36;5.45;;;3.67;;
45236;SDS011;30973;51.442;3.580;2022-12-20T01:02:02;8.45;;;3.85;;
45236;SDS011;30973;51.442;3.580;2022-12-20T01:04:29;10.75;;;4.20;;
45236;SDS011;30973;51.442;3.580;2022-12-20T01:06:56;7.88;;;4.05;;
45236;SDS011;30973;51.442;3.580;2022-12-20T01:09:22;5.20;;;3.78;;
45236;SDS011;30973;51.442;3.580;2022-12-20T01:11:49;5.63;;;3.88;;
45236;SDS011;30973;51.442;3.580;2022-12-20T01:14:16;11.35;;;4.53;;
45236;SDS011;30973;51.442;3.580;2022-12-20T01:16:44;8.63;;;3.80;;
45236;SDS011;30973;51.442;3.580;2022-12-20T01:19:13;9.13;;;4.63;;
45236;SDS011;30973;51.442;3.580;2022-12-20T01:21:40;7.13;;;4.07;;
45236;SDS011;30973;51.442;3.580;2022-12-20T01:24:11;5.60;;;3.90;;
45236;SDS011;30973;51.442;3.580;2022-12-20T01:26:37;9.07;;;4.65;;
45236;SDS011;30973;51.442;3.580;2022-12-20T01:29:04;7.43;;;4.43;;
45236;SDS011;30973;51.442;3.580;2022-12-20T01:31:31;8.27;;;4.05;;
45236;SDS011;30973;51.442;3.580;2022-12-20T01:33:58;6.68;;;4.40;;
45236;SDS011;30973;51.442;3.580;2022-12-20T01:36:26;7.32;;;3.75;;
45236;SDS011;30973;51.442;3.580;2022-12-20T01:38:55;13.40;;;5.45;;
45236;SDS011;30973;51.442;3.580;2022-12-20T01:41:22;7.22;;;4.00;;
45236;SDS011;30973;51.442;3.580;2022-12-20T01:43:54;10.43;;;4.57;;
45236;SDS011;30973;51.442;3.580;2022-12-20T01:46:22;8.32;;;3.75;;
45236;SDS011;30973;51.442;3.580;2022-12-20T01:49:00;7.50;;;3.88;;
45236;SDS011;30973;51.442;3.580;2022-12-20T01:51:28;11.23;;;4.70;;
45236;SDS011;30973;51.442;3.580;2022-12-20T01:53:57;8.70;;;4.35;;
45236;SDS011;30973;51.442;3.580;2022-12-20T01:56:27;9.45;;;4.25;;
45236;SDS011;30973;51.442;3.580;2022-12-20T01:58:53;10.25;;;4.18;;
45236;SDS011;30973;51.442;3.580;2022-12-20T02:01:21;9.00;;;4.20;;
45236;SDS011;30973;51.442;3.580;2022-12-20T02:03:48;6.60;;;4.50;;
45236;SDS011;30973;51.442;3.580;2022-12-20T02:06:17;7.63;;;4.30;;
45236;SDS011;30973;51.442;3.580;2022-12-20T02:08:45;7.18;;;3.97;;
45236;SDS011;30973;51.442;3.580;2022-12-20T02:16:25;6.75;;;4.05;;
45236;SDS011;30973;51.442;3.580;2022-12-20T02:19:00;7.55;;;3.72;;
45236;SDS011;30973;51.442;3.580;2022-12-20T02:21:33;7.38;;;3.97;;
45236;SDS011;30973;51.442;3.580;2022-12-20T02:34:28;8.30;;;3.60;;
45236;SDS011;30973;51.442;3.580;2022-12-20T02:36:57;9.52;;;3.80;;
45236;SDS011;30973;51.442;3.580;2022-12-20T02:39:26;7.68;;;4.07;;
45236;SDS011;30973;51.442;3.580;2022-12-20T02:41:54;8.77;;;4.43;;
45236;SDS011;30973;51.442;3.580;2022-12-20T02:44:23;7.40;;;3.70;;
45236;SDS011;30973;51.442;3.580;2022-12-20T02:47:11;10.85;;;4.38;;
45236;SDS011;30973;51.442;3.580;2022-12-20T02:49:39;9.15;;;3.97;;
45236;SDS011;30973;51.442;3.580;2022-12-20T02:52:08;9.52;;;4.00;;
45236;SDS011;30973;51.442;3.580;2022-12-20T02:54:35;9.60;;;4.07;;
45236;SDS011;30973;51.442;3.580;2022-12-20T02:57:22;6.32;;;3.42;;
45236;SDS011;30973;51.442;3.580;2022-12-20T03:02:17;9.20;;;4.50;;
45236;SDS011;30973;51.442;3.580;2022-12-20T03:04:44;9.57;;;4.35;;
45236;SDS011;30973;51.442;3.580;2022-12-20T03:07:12;8.88;;;3.85;;
45236;SDS011;30973;51.442;3.580;2022-12-20T03:09:41;6.93;;;3.70;;
45236;SDS011;30973;51.442;3.580;2022-12-20T03:12:08;7.95;;;3.75;;
45236;SDS011;30973;51.442;3.580;2022-12-20T03:14:37;10.05;;;3.92;;
45236;SDS011;30973;51.442;3.580;2022-12-20T03:17:06;6.80;;;4.15;;
45236;SDS011;30973;51.442;3.580;2022-12-20T03:19:33;10.90;;;4.13;;
45236;SDS011;30973;51.442;3.580;2022-12-20T03:21:59;10.68;;;4.38;;
45236;SDS011;30973;51.442;3.580;2022-12-20T03:24:26;8.02;;;3.90;;
45236;SDS011;30973;51.442;3.580;2022-12-20T03:26:53;8.02;;;3.67;;
45236;SDS011;30973;51.442;3.580;2022-12-20T03:29:22;10.35;;;4.60;;
45236;SDS011;30973;51.442;3.580;2022-12-20T03:31:49;8.63;;;4.28;;
45236;SDS011;30973;51.442;3.580;2022-12-20T03:34:15;11.15;;;4.15;;
45236;SDS011;30973;51.442;3.580;2022-12-20T03:36:42;7.43;;;3.92;;
45236;SDS011;30973;51.442;3.580;2022-12-20T03:39:09;10.85;;;3.88;;
45236;SDS011;30973;51.442;3.580;2022-12-20T03:41:39;6.93;;;3.78;;
45236;SDS011;30973;51.442;3.580;2022-12-20T03:44:07;6.75;;;4.00;;
45236;SDS011;30973;51.442;3.580;2022-12-20T03:46:34;6.22;;;3.65;;
45236;SDS011;30973;51.442;3.580;2022-12-20T03:49:02;8.85;;;3.80;;
45236;SDS011;30973;51.442;3.580;2022-12-20T03:51:30;7.30;;;4.30;;
45236;SDS011;30973;51.442;3.580;2022-12-20T03:53:56;7.70;;;4.28;;
45236;SDS011;30973;51.442;3.580;2022-12-20T03:56:34;6.78;;;3.53;;
45236;SDS011;30973;51.442;3.580;2022-12-20T03:59:02;7.45;;;3.63;;
45236;SDS011;30973;51.442;3.580;2022-12-20T04:01:29;7.35;;;3.53;;
45236;SDS011;30973;51.442;3.580;2022-12-20T04:03:56;6.72;;;3.70;;
45236;SDS011;30973;51.442;3.580;2022-12-20T04:06:23;7.45;;;3.70;;
45236;SDS011;30973;51.442;3.580;2022-12-20T04:08:50;7.50;;;3.70;;
45236;SDS011;30973;51.442;3.580;2022-12-20T04:11:24;8.68;;;4.15;;
45236;SDS011;30973;51.442;3.580;2022-12-20T04:13:57;7.15;;;3.78;;
45236;SDS011;30973;51.442;3.580;2022-12-20T04:16:25;12.88;;;4.97;;
45236;SDS011;30973;51.442;3.580;2022-12-20T04:18:53;11.02;;;6.47;;
45236;SDS011;30973;51.442;3.580;2022-12-20T04:21:24;6.60;;;3.42;;
45236;SDS011;30973;51.442;3.580;2022-12-20T04:23:54;7.22;;;3.63;;
45236;SDS011;30973;51.442;3.580;2022-12-20T04:26:23;6.97;;;3.55;;
45236;SDS011;30973;51.442;3.580;2022-12-20T04:28:49;7.85;;;3.50;;
45236;SDS011;30973;51.442;3.580;2022-12-20T04:31:16;8.35;;;3.42;;
45236;SDS011;30973;51.442;3.580;2022-12-20T04:33:50;9.15;;;3.35;;
45236;SDS011;30973;51.442;3.580;2022-12-20T04:36:18;6.28;;;3.10;;
45236;SDS011;30973;51.442;3.580;2022-12-20T04:38:47;7.07;;;4.03;;
45236;SDS011;30973;51.442;3.580;2022-12-20T04:41:13;5.93;;;2.95;;
45236;SDS011;30973;51.442;3.580;2022-12-20T04:43:54;4.60;;;3.33;;
45236;SDS011;30973;51.442;3.580;2022-12-20T04:46:24;9.00;;;2.90;;
45236;SDS011;30973;51.442;3.580;2022-12-20T04:48:54;9.05;;;3.60;;
45236;SDS011;30973;51.442;3.580;2022-12-20T04:51:25;7.72;;;3.33;;
45236;SDS011;30973;51.442;3.580;2022-12-20T04:53:51;7.13;;;3.13;;
45236;SDS011;30973;51.442;3.580;2022-12-20T04:56:36;7.70;;;3.17;;
45236;SDS011;30973;51.442;3.580;2022-12-20T04:59:08;7.38;;;3.25;;
45236;SDS011;30973;51.442;3.580;2022-12-20T05:01:35;4.90;;;2.80;;
45236;SDS011;30973;51.442;3.580;2022-12-20T05:04:02;6.10;;;2.65;;
45236;SDS011;30973;51.442;3.580;2022-12-20T05:06:33;6.70;;;3.20;;
45236;SDS011;30973;51.442;3.580;2022-12-20T05:09:00;7.40;;;3.05;;
45236;SDS011;30973;51.442;3.580;2022-12-20T05:11:27;7.47;;;3.70;;
45236;SDS011;30973;51.442;3.580;2022-12-20T05:13:53;11.43;;;3.45;;
45236;SDS011;30973;51.442;3.580;2022-12-20T05:16:20;7.93;;;3.22;;
45236;SDS011;30973;51.442;3.580;2022-12-20T05:18:47;9.40;;;3.28;;
45236;SDS011;30973;51.442;3.580;2022-12-20T05:21:16;6.55;;;3.25;;
45236;SDS011;30973;51.442;3.580;2022-12-20T05:24:02;7.38;;;2.83;;
45236;SDS011;30973;51.442;3.580;2022-12-20T05:27:07;7.45;;;3.50;;
45236;SDS011;30973;51.442;3.580;2022-12-20T05:29:34;6.80;;;3.20;;
45236;SDS011;30973;51.442;3.580;2022-12-20T05:32:01;5.45;;;2.80;;
45236;SDS011;30973;51.442;3.580;2022-12-20T05:34:27;7.35;;;3.25;;
45236;SDS011;30973;51.442;3.580;2022-12-20T05:36:55;11.32;;;3.95;;
45236;SDS011;30973;51.442;3.580;2022-12-20T05:39:25;7.85;;;3.55;;
45236;SDS011;30973;51.442;3.580;2022-12-20T05:41:56;7.07;;;3.42;;
45236;SDS011;30973;51.442;3.580;2022-12-20T05:44:24;5.93;;;3.08;;
45236;SDS011;30973;51.442;3.580;2022-12-20T05:46:54;10.50;;;3.50;;
45236;SDS011;30973;51.442;3.580;2022-12-20T05:49:26;5.60;;;2.78;;
45236;SDS011;30973;51.442;3.580;2022-12-20T05:51:54;7.15;;;2.92;;
45236;SDS011;30973;51.442;3.580;2022-12-20T05:54:23;6.88;;;2.60;;
45236;SDS011;30973;51.442;3.580;2022-12-20T05:57:04;9.90;;;3.05;;
45236;SDS011;30973;51.442;3.580;2022-12-20T05:59:35;6.65;;;2.97;;
45236;SDS011;30973;51.442;3.580;2022-12-20T06:02:04;5.93;;;3.20;;
45236;SDS011;30973;51.442;3.580;2022-12-20T06:04:32;5.93;;;3.05;;
45236;SDS011;30973;51.442;3.580;2022-12-20T06:07:04;6.60;;;3.25;;
45236;SDS011;30973;51.442;3.580;2022-12-20T06:09:31;5.72;;;2.92;;
45236;SDS011;30973;51.442;3.580;2022-12-20T06:12:03;5.93;;;2.95;;
45236;SDS011;30973;51.442;3.580;2022-12-20T06:14:32;6.18;;;3.08;;
45236;SDS011;30973;51.442;3.580;2022-12-20T06:16:59;6.05;;;2.95;;
45236;SDS011;30973;51.442;3.580;2022-12-20T06:19:26;5.50;;;2.97;;
45236;SDS011;30973;51.442;3.580;2022-12-20T06:21:56;8.07;;;3.25;;
45236;SDS011;30973;51.442;3.580;2022-12-20T06:27:22;7.05;;;3.35;;
45236;SDS011;30973;51.442;3.580;2022-12-20T06:29:59;9.60;;;3.15;;
45236;SDS011;30973;51.442;3.580;2022-12-20T06:32:32;4.57;;;2.70;;
45236;SDS011;30973;51.442;3.580;2022-12-20T06:34:59;6.40;;;3.08;;
45236;SDS011;30973;51.442;3.580;2022-12-20T06:37:26;7.15;;;3.05;;
45236;SDS011;30973;51.442;3.580;2022-12-20T06:39:53;7.22;;;3.00;;
45236;SDS011;30973;51.442;3.580;2022-12-20T06:42:21;4.90;;;3.00;;
45236;SDS011;30973;51.442;3.580;2022-12-20T06:44:48;6.57;;;2.97;;
45236;SDS011;30973;51.442;3.580;2022-12-20T06:47:15;9.90;;;3.63;;
45236;SDS011;30973;51.442;3.580;2022-12-20T06:49:41;7.15;;;3.22;;
45236;SDS011;30973;51.442;3.580;2022-12-20T06:52:17;4.82;;;2.90;;
45236;SDS011;30973;51.442;3.580;2022-12-20T06:54:46;8.73;;;3.03;;
45236;SDS011;30973;51.442;3.580;2022-12-20T06:57:13;7.03;;;2.67;;
45236;SDS011;30973;51.442;3.580;2022-12-20T06:59:42;5.65;;;3.13;;
45236;SDS011;30973;51.442;3.580;2022-12-20T07:02:11;6.88;;;2.53;;
45236;SDS011;30973;51.442;3.580;2022-12-20T07:04:39;5.70;;;3.13;;
45236;SDS011;30973;51.442;3.580;2022-12-20T07:07:05;9.32;;;3.72;;
45236;SDS011;30973;51.442;3.580;2022-12-20T07:09:32;7.70;;;3.25;;
45236;SDS011;30973;51.442;3.580;2022-12-20T07:11:59;8.55;;;3.08;;
45236;SDS011;30973;51.442;3.580;2022-12-20T07:14:25;9.98;;;3.65;;
45236;SDS011;30973;51.442;3.580;2022-12-20T07:16:52;7.70;;;3.03;;
45236;SDS011;30973;51.442;3.580;2022-12-20T07:19:19;5.95;;;3.03;;
45236;SDS011;30973;51.442;3.580;2022-12-20T07:21:47;9.23;;;3.42;;
45236;SDS011;30973;51.442;3.580;2022-12-20T07:24:14;7.85;;;2.65;;
45236;SDS011;30973;51.442;3.580;2022-12-20T07:26:42;6.18;;;2.60;;
45236;SDS011;30973;51.442;3.580;2022-12-20T07:29:09;6.65;;;3.10;;
45236;SDS011;30973;51.442;3.580;2022-12-20T07:31:41;7.80;;;2.80;;
45236;SDS011;30973;51.442;3.580;2022-12-20T07:34:07;6.97;;;2.90;;
45236;SDS011;30973;51.442;3.580;2022-12-20T07:36:34;12.25;;;3.42;;
45236;SDS011;30973;51.442;3.580;2022-12-20T07:39:00;10.77;;;3.88;;
45236;SDS011;30973;51.442;3.580;2022-12-20T07:41:27;10.57;;;2.85;;
45236;SDS011;30973;51.442;3.580;2022-12-20T07:43:54;6.07;;;2.90;;
45236;SDS011;30973;51.442;3.580;2022-12-20T07:46:21;7.63;;;2.90;;
45236;SDS011;30973;51.442;3.580;2022-12-20T07:48:47;11.60;;;3.28;;
45236;SDS011;30973;51.442;3.580;2022-12-20T07:51:15;8.45;;;3.85;;
45236;SDS011;30973;51.442;3.580;2022-12-20T07:53:51;7.38;;;3.00;;
45236;SDS011;30973;51.442;3.580;2022-12-20T08:00:36;6.07;;;2.80;;
45236;SDS011;30973;51.442;3.580;2022-12-20T08:03:38;10.70;;;4.18;;
45236;SDS011;30973;51.442;3.580;2022-12-20T08:06:22;6.38;;;3.05;;
45236;SDS011;30973;51.442;3.580;2022-12-20T08:09:42;8.00;;;3.20;;
45236;SDS011;30973;51.442;3.580;2022-12-20T08:12:41;6.78;;;3.33;;
45236;SDS011;30973;51.442;3.580;2022-12-20T08:15:42;10.20;;;4.60;;
45236;SDS011;30973;51.442;3.580;2022-12-20T08:18:11;9.25;;;3.60;;
45236;SDS011;30973;51.442;3.580;2022-12-20T08:20:38;8.18;;;3.33;;
45236;SDS011;30973;51.442;3.580;2022-12-20T08:23:05;6.82;;;3.17;;
45236;SDS011;30973;51.442;3.580;2022-12-20T08:33:43;13.65;;;3.47;;
45236;SDS011;30973;51.442;3.580;2022-12-20T08:41:18;7.13;;;3.35;;
45236;SDS011;30973;51.442;3.580;2022-12-20T09:00:16;7.25;;;2.58;;
45236;SDS011;30973;51.442;3.580;2022-12-20T09:03:16;8.50;;;3.38;;
45236;SDS011;30973;51.442;3.580;2022-12-20T09:06:00;6.88;;;2.85;;
45236;SDS011;30973;51.442;3.580;2022-12-20T09:08:29;5.05;;;2.85;;
45236;SDS011;30973;51.442;3.580;2022-12-20T09:11:02;6.20;;;2.47;;
45236;SDS011;30973;51.442;3.580;2022-12-20T09:13:28;5.20;;;2.63;;
45236;SDS011;30973;51.442;3.580;2022-12-20T09:15:55;8.27;;;3.05;;
45236;SDS011;30973;51.442;3.580;2022-12-20T09:18:22;11.10;;;3.53;;
45236;SDS011;30973;51.442;3.580;2022-12-20T09:20:48;5.13;;;2.75;;
45236;SDS011;30973;51.442;3.580;2022-12-20T09:23:15;7.22;;;3.35;;
45236;SDS011;30973;51.442;3.580;2022-12-20T09:25:42;7.00;;;3.03;;
45236;SDS011;30973;51.442;3.580;2022-12-20T09:28:14;7.38;;;2.55;;
45236;SDS011;30973;51.442;3.580;2022-12-20T09:30:40;6.97;;;3.33;;
45236;SDS011;30973;51.442;3.580;2022-12-20T09:33:07;4.85;;;2.90;;
45236;SDS011;30973;51.442;3.580;2022-12-20T09:35:35;5.05;;;2.47;;
45236;SDS011;30973;51.442;3.580;2022-12-20T09:38:03;5.57;;;2.50;;
45236;SDS011;30973;51.442;3.580;2022-12-20T09:40:30;11.23;;;3.40;;
45236;SDS011;30973;51.442;3.580;2022-12-20T09:42:58;5.43;;;2.90;;
45236;SDS011;30973;51.442;3.580;2022-12-20T09:45:26;10.13;;;2.92;;
45236;SDS011;30973;51.442;3.580;2022-12-20T09:47:53;7.18;;;3.47;;
45236;SDS011;30973;51.442;3.580;2022-12-20T09:50:20;5.70;;;3.20;;
45236;SDS011;30973;51.442;3.580;2022-12-20T09:53:12;10.75;;;3.35;;
45236;SDS011;30973;51.442;3.580;2022-12-20T09:55:52;7.63;;;3.30;;
45236;SDS011;30973;51.442;3.580;2022-12-20T09:58:33;8.85;;;2.90;;
45236;SDS011;30973;51.442;3.580;2022-12-20T10:01:15;6.28;;;2.88;;
45236;SDS011;30973;51.442;3.580;2022-12-20T10:03:50;7.68;;;3.10;;
45236;SDS011;30973;51.442;3.580;2022-12-20T10:08:53;5.47;;;3.03;;
45236;SDS011;30973;51.442;3.580;2022-12-20T10:13:57;10.45;;;4.22;;
45236;SDS011;30973;51.442;3.580;2022-12-20T10:16:32;10.52;;;3.88;;
45236;SDS011;30973;51.442;3.580;2022-12-20T10:21:51;6.15;;;3.20;;
45236;SDS011;30973;51.442;3.580;2022-12-20T10:24:24;6.50;;;3.53;;
45236;SDS011;30973;51.442;3.580;2022-12-20T10:26:51;7.45;;;3.00;;
45236;SDS011;30973;51.442;3.580;2022-12-20T10:29:18;8.02;;;3.45;;
45236;SDS011;30973;51.442;3.580;2022-12-20T10:31:58;10.77;;;3.72;;
45236;SDS011;30973;51.442;3.580;2022-12-20T10:34:25;8.30;;;3.53;;
45236;SDS011;30973;51.442;3.580;2022-12-20T10:37:10;6.72;;;3.30;;
45236;SDS011;30973;51.442;3.580;2022-12-20T10:39:46;5.32;;;3.05;;
45236;SDS011;30973;51.442;3.580;2022-12-20T10:52:26;5.07;;;3.17;;
45236;SDS011;30973;51.442;3.580;2022-12-20T10:55:39;7.53;;;3.70;;
45236;SDS011;30973;51.442;3.580;2022-12-20T10:58:30;8.45;;;3.22;;
45236;SDS011;30973;51.442;3.580;2022-12-20T11:11:58;5.85;;;3.05;;
45236;SDS011;30973;51.442;3.580;2022-12-20T11:14:24;6.30;;;3.50;;
45236;SDS011;30973;51.442;3.580;2022-12-20T11:16:50;10.00;;;3.88;;
45236;SDS011;30973;51.442;3.580;2022-12-20T11:30:18;5.90;;;3.53;;
45236;SDS011;30973;51.442;3.580;2022-12-20T11:32:52;6.95;;;3.08;;
45236;SDS011;30973;51.442;3.580;2022-12-20T11:54:25;8.15;;;3.80;;
45236;SDS011;30973;51.442;3.580;2022-12-20T11:56:57;7.93;;;3.78;;
45236;SDS011;30973;51.442;3.580;2022-12-20T12:04:55;10.45;;;3.90;;
45236;SDS011;30973;51.442;3.580;2022-12-20T12:07:34;7.43;;;3.22;;
45236;SDS011;30973;51.442;3.580;2022-12-20T12:15:31;7.35;;;3.08;;
45236;SDS011;30973;51.442;3.580;2022-12-20T12:18:16;5.32;;;3.72;;
45236;SDS011;30973;51.442;3.580;2022-12-20T12:23:44;9.32;;;4.05;;
45236;SDS011;30973;51.442;3.580;2022-12-20T12:26:17;9.23;;;4.10;;
45236;SDS011;30973;51.442;3.580;2022-12-20T12:28:59;8.73;;;3.70;;
45236;SDS011;30973;51.442;3.580;2022-12-20T12:44:57;5.97;;;3.47;;
45236;SDS011;30973;51.442;3.580;2022-12-20T12:50:02;10.10;;;3.95;;
45236;SDS011;30973;51.442;3.580;2022-12-20T12:52:43;5.70;;;3.17;;
45236;SDS011;30973;51.442;3.580;2022-12-20T13:03:43;7.22;;;3.88;;
45236;SDS011;30973;51.442;3.580;2022-12-20T13:11:59;7.35;;;4.03;;
45236;SDS011;30973;51.442;3.580;2022-12-20T13:20:36;7.03;;;3.92;;
45236;SDS011;30973;51.442;3.580;2022-12-20T13:23:17;7.32;;;3.80;;
45236;SDS011;30973;51.442;3.580;2022-12-20T13:25:50;9.60;;;4.28;;
45236;SDS011;30973;51.442;3.580;2022-12-20T13:33:45;9.95;;;4.38;;
45236;SDS011;30973;51.442;3.580;2022-12-20T13:36:29;8.60;;;4.38;;
45236;SDS011;30973;51.442;3.580;2022-12-20T13:44:47;10.73;;;3.90;;
45236;SDS011;30973;51.442;3.580;2022-12-20T13:50:27;7.82;;;4.00;;
45236;SDS011;30973;51.442;3.580;2022-12-20T13:53:21;8.38;;;4.15;;
45236;SDS011;30973;51.442;3.580;2022-12-20T13:56:19;10.13;;;3.85;;
45236;SDS011;30973;51.442;3.580;2022-12-20T13:58:53;7.07;;;3.95;;
45236;SDS011;30973;51.442;3.580;2022-12-20T14:01:21;6.63;;;4.22;;
45236;SDS011;30973;51.442;3.580;2022-12-20T14:03:53;6.18;;;4.20;;
45236;SDS011;30973;51.442;3.580;2022-12-20T14:06:36;6.60;;;3.88;;
45236;SDS011;30973;51.442;3.580;2022-12-20T14:09:36;9.20;;;4.00;;
45236;SDS011;30973;51.442;3.580;2022-12-20T14:12:16;8.70;;;4.03;;
45236;SDS011;30973;51.442;3.580;2022-12-20T14:14:54;5.82;;;3.60;;
45236;SDS011;30973;51.442;3.580;2022-12-20T14:17:44;7.75;;;3.90;;
45236;SDS011;30973;51.442;3.580;2022-12-20T14:20:16;5.43;;;3.72;;
45236;SDS011;30973;51.442;3.580;2022-12-20T14:22:51;5.95;;;3.63;;
45236;SDS011;30973;51.442;3.580;2022-12-20T14:25:46;9.82;;;3.50;;
45236;SDS011;30973;51.442;3.580;2022-12-20T14:33:12;6.78;;;3.45;;
45236;SDS011;30973;51.442;3.580;2022-12-20T14:35:53;4.10;;;3.33;;
45236;SDS011;30973;51.442;3.580;2022-12-20T14:38:49;8.60;;;4.03;;
45236;SDS011;30973;51.442;3.580;2022-12-20T14:41:28;9.38;;;4.15;;
45236;SDS011;30973;51.442;3.580;2022-12-20T14:46:34;6.15;;;3.88;;
45236;SDS011;30973;51.442;3.580;2022-12-20T14:49:10;6.03;;;4.18;;
45236;SDS011;30973;51.442;3.580;2022-12-20T14:52:03;5.13;;;3.80;;
45236;SDS011;30973;51.442;3.580;2022-12-20T14:57:31;5.20;;;4.20;;
45236;SDS011;30973;51.442;3.580;2022-12-20T15:10:42;10.32;;;5.82;;
45236;SDS011;30973;51.442;3.580;2022-12-20T15:13:16;7.60;;;5.17;;
45236;SDS011;30973;51.442;3.580;2022-12-20T15:15:47;7.95;;;5.18;;
45236;SDS011;30973;51.442;3.580;2022-12-20T15:18:17;7.18;;;4.78;;
45236;SDS011;30973;51.442;3.580;2022-12-20T15:20:48;5.15;;;4.53;;
45236;SDS011;30973;51.442;3.580;2022-12-20T15:23:44;5.85;;;4.53;;
45236;SDS011;30973;51.442;3.580;2022-12-20T15:26:29;6.18;;;4.68;;
45236;SDS011;30973;51.442;3.580;2022-12-20T15:29:14;6.75;;;5.10;;
45236;SDS011;30973;51.442;3.580;2022-12-20T15:32:13;8.43;;;4.82;;
45236;SDS011;30973;51.442;3.580;2022-12-20T15:34:41;7.15;;;5.18;;
45236;SDS011;30973;51.442;3.580;2022-12-20T15:37:10;7.28;;;5.03;;
45236;SDS011;30973;51.442;3.580;2022-12-20T15:42:12;11.40;;;5.28;;
45236;SDS011;30973;51.442;3.580;2022-12-20T15:44:42;13.80;;;5.72;;
45236;SDS011;30973;51.442;3.580;2022-12-20T15:47:13;8.00;;;5.10;;
45236;SDS011;30973;51.442;3.580;2022-12-20T15:49:41;10.27;;;5.07;;
45236;SDS011;30973;51.442;3.580;2022-12-20T15:52:21;9.00;;;5.00;;
45236;SDS011;30973;51.442;3.580;2022-12-20T15:54:48;8.13;;;4.78;;
45236;SDS011;30973;51.442;3.580;2022-12-20T15:57:19;9.48;;;5.03;;
45236;SDS011;30973;51.442;3.580;2022-12-20T15:59:46;9.20;;;5.95;;
45236;SDS011;30973;51.442;3.580;2022-12-20T16:02:39;6.15;;;4.78;;
45236;SDS011;30973;51.442;3.580;2022-12-20T16:05:08;10.50;;;5.00;;
45236;SDS011;30973;51.442;3.580;2022-12-20T16:07:36;6.47;;;4.85;;
45236;SDS011;30973;51.442;3.580;2022-12-20T16:10:12;7.88;;;4.88;;
45236;SDS011;30973;51.442;3.580;2022-12-20T16:12:41;7.38;;;4.63;;
45236;SDS011;30973;51.442;3.580;2022-12-20T16:15:18;6.35;;;4.78;;
45236;SDS011;30973;51.442;3.580;2022-12-20T16:18:03;7.38;;;5.03;;
45236;SDS011;30973;51.442;3.580;2022-12-20T16:20:33;6.80;;;4.70;;
45236;SDS011;30973;51.442;3.580;2022-12-20T16:23:01;5.63;;;4.70;;
45236;SDS011;30973;51.442;3.580;2022-12-20T16:25:30;5.65;;;4.15;;
45236;SDS011;30973;51.442;3.580;2022-12-20T16:27:57;5.40;;;4.40;;
45236;SDS011;30973;51.442;3.580;2022-12-20T16:30:25;6.47;;;5.35;;
45236;SDS011;30973;51.442;3.580;2022-12-20T16:32:52;6.13;;;5.53;;
45236;SDS011;30973;51.442;3.580;2022-12-20T16:35:28;6.97;;;5.85;;
45236;SDS011;30973;51.442;3.580;2022-12-20T16:37:57;5.93;;;5.35;;
45236;SDS011;30973;51.442;3.580;2022-12-20T16:40:26;6.50;;;5.75;;
45236;SDS011;30973;51.442;3.580;2022-12-20T16:42:54;7.38;;;5.65;;
45236;SDS011;30973;51.442;3.580;2022-12-20T16:45:22;8.65;;;6.20;;
45236;SDS011;30973;51.442;3.580;2022-12-20T16:47:51;8.02;;;6.40;;
45236;SDS011;30973;51.442;3.580;2022-12-20T16:50:19;7.68;;;6.88;;
45236;SDS011;30973;51.442;3.580;2022-12-20T16:52:47;7.90;;;6.70;;
45236;SDS011;30973;51.442;3.580;2022-12-20T16:55:20;7.80;;;6.97;;
45236;SDS011;30973;51.442;3.580;2022-12-20T16:57:51;9.77;;;7.78;;
45236;SDS011;30973;51.442;3.580;2022-12-20T17:00:20;9.32;;;7.03;;
45236;SDS011;30973;51.442;3.580;2022-12-20T17:02:48;9.85;;;6.97;;
45236;SDS011;30973;51.442;3.580;2022-12-20T17:05:23;7.90;;;6.90;;
45236;SDS011;30973;51.442;3.580;2022-12-20T17:07:50;8.27;;;7.43;;
45236;SDS011;30973;51.442;3.580;2022-12-20T17:10:17;7.82;;;6.78;;
45236;SDS011;30973;51.442;3.580;2022-12-20T17:12:44;8.65;;;7.75;;
45236;SDS011;30973;51.442;3.580;2022-12-20T17:15:15;8.23;;;7.32;;
45236;SDS011;30973;51.442;3.580;2022-12-20T17:17:42;9.88;;;7.30;;
45236;SDS011;30973;51.442;3.580;2022-12-20T17:20:09;9.52;;;7.50;;
45236;SDS011;30973;51.442;3.580;2022-12-20T17:22:36;8.25;;;6.85;;
45236;SDS011;30973;51.442;3.580;2022-12-20T17:25:03;8.48;;;6.55;;
45236;SDS011;30973;51.442;3.580;2022-12-20T17:27:30;7.68;;;6.88;;
45236;SDS011;30973;51.442;3.580;2022-12-20T17:29:57;10.00;;;7.43;;
45236;SDS011;30973;51.442;3.580;2022-12-20T17:32:24;9.18;;;7.70;;
45236;SDS011;30973;51.442;3.580;2022-12-20T17:34:51;12.38;;;8.90;;
45236;SDS011;30973;51.442;3.580;2022-12-20T17:37:18;10.43;;;8.93;;
45236;SDS011;30973;51.442;3.580;2022-12-20T17:39:47;12.10;;;9.85;;
45236;SDS011;30973;51.442;3.580;2022-12-20T17:42:14;9.65;;;8.05;;
45236;SDS011;30973;51.442;3.580;2022-12-20T17:44:41;9.10;;;8.18;;
45236;SDS011;30973;51.442;3.580;2022-12-20T17:47:08;9.25;;;8.25;;
45236;SDS011;30973;51.442;3.580;2022-12-20T17:49:37;9.77;;;8.60;;
45236;SDS011;30973;51.442;3.580;2022-12-20T17:52:03;9.43;;;8.43;;
45236;SDS011;30973;51.442;3.580;2022-12-20T17:54:30;11.77;;;8.85;;
45236;SDS011;30973;51.442;3.580;2022-12-20T17:57:05;9.68;;;8.77;;
45236;SDS011;30973;51.442;3.580;2022-12-20T17:59:31;10.63;;;9.52;;
45236;SDS011;30973;51.442;3.580;2022-12-20T18:01:59;11.07;;;8.95;;
45236;SDS011;30973;51.442;3.580;2022-12-20T18:04:25;11.80;;;10.27;;
45236;SDS011;30973;51.442;3.580;2022-12-20T18:06:53;11.93;;;10.23;;
45236;SDS011;30973;51.442;3.580;2022-12-20T18:09:20;12.98;;;10.52;;
45236;SDS011;30973;51.442;3.580;2022-12-20T18:11:47;13.07;;;11.73;;
45236;SDS011;30973;51.442;3.580;2022-12-20T18:14:14;13.80;;;10.25;;
45236;SDS011;30973;51.442;3.580;2022-12-20T18:16:41;11.85;;;10.63;;
45236;SDS011;30973;51.442;3.580;2022-12-20T18:19:13;14.18;;;11.15;;
45236;SDS011;30973;51.442;3.580;2022-12-20T18:21:40;13.05;;;11.75;;
45236;SDS011;30973;51.442;3.580;2022-12-20T18:24:14;12.80;;;11.18;;
45236;SDS011;30973;51.442;3.580;2022-12-20T18:26:41;12.90;;;10.80;;
45236;SDS011;30973;51.442;3.580;2022-12-20T18:29:08;12.38;;;11.07;;
45236;SDS011;30973;51.442;3.580;2022-12-20T18:31:36;12.95;;;11.55;;